Time;durP1;ratioP1;P1;durP2;ratioP2;P2;SDS_P1;SDS_P2;PMS_P1;PMS_P2;Temp;Humidity;BMP_temperature;BMP_pressure;BME280_temperature;BME280_humidity;BME280_pressure;Samples;Min_cycle;Max_cycle;Signal;HPM_P1;HPM_P2
2022/02/25 00:01:04;;;;;;;2.90;2.07;;;;;;;;;;5027940;28;20194;-54
2022/02/25 00:03:30;;;;;;;2.03;1.80;;;;;;;;;;5023049;28;20733;-54
2022/02/25 00:05:56;;;;;;;2.13;1.67;;;;;;;;;;5021515;28;20205;-53
2022/02/25 00:08:22;;;;;;;1.90;1.70;;;;;;;;;;5024567;28;20205;-54
2022/02/25 00:10:49;;;;;;;2.77;1.63;;;;;;;;;;5023976;28;20216;-52
2022/02/25 00:13:15;;;;;;;1.70;1.57;;;;;;;;;;5031442;28;20193;-53
2022/02/25 00:15:41;;;;;;;2.23;1.67;;;;;;;;;;5031648;28;20640;-55
2022/02/25 00:18:07;;;;;;;1.90;1.50;;;;;;;;;;5023257;28;20202;-53
2022/02/25 00:20:54;;;;;;;2.20;1.80;;;;;;;;;;5026281;28;20269;-54
2022/02/25 00:23:21;;;;;;;3.00;1.80;;;;;;;;;;5024110;28;20206;-53
2022/02/25 00:25:48;;;;;;;1.77;1.57;;;;;;;;;;5031286;28;20180;-54
2022/02/25 00:28:14;;;;;;;2.60;1.80;;;;;;;;;;5010206;28;20621;-53
2022/02/25 00:30:41;;;;;;;2.77;1.77;;;;;;;;;;5023026;28;20185;-53
2022/02/25 00:33:07;;;;;;;3.33;1.70;;;;;;;;;;5023324;28;20204;-53
2022/02/25 00:35:36;;;;;;;2.43;1.90;;;;;;;;;;5036898;28;20544;-53
2022/02/25 00:38:02;;;;;;;2.83;1.80;;;;;;;;;;5028740;28;20579;-52
2022/02/25 00:40:29;;;;;;;2.70;2.10;;;;;;;;;;5026725;28;20189;-53
2022/02/25 00:42:55;;;;;;;2.83;1.83;;;;;;;;;;5020195;28;20233;-56
2022/02/25 00:45:21;;;;;;;2.10;1.90;;;;;;;;;;5019294;28;20178;-54
2022/02/25 00:47:47;;;;;;;2.33;1.53;;;;;;;;;;5023836;28;20513;-53
2022/02/25 00:50:14;;;;;;;2.73;1.90;;;;;;;;;;5023201;28;20184;-52
2022/02/25 00:52:40;;;;;;;3.10;2.00;;;;;;;;;;5031643;28;20208;-52
2022/02/25 00:55:06;;;;;;;3.13;1.90;;;;;;;;;;5029280;28;20192;-53
2022/02/25 00:57:32;;;;;;;2.03;1.73;;;;;;;;;;5038739;28;20189;-53
2022/02/25 00:59:59;;;;;;;1.97;1.77;;;;;;;;;;5029965;28;20186;-53
2022/02/25 01:02:25;;;;;;;3.20;1.90;;;;;;;;;;5030044;28;20657;-52
2022/02/25 01:04:51;;;;;;;2.27;1.57;;;;;;;;;;5027317;28;20258;-53
2022/02/25 01:07:17;;;;;;;2.93;2.17;;;;;;;;;;5027018;28;20170;-53
2022/02/25 01:09:45;;;;;;;2.53;2.00;;;;;;;;;;5030851;28;20261;-52
2022/02/25 01:12:11;;;;;;;2.60;1.80;;;;;;;;;;5017719;28;20247;-53
2022/02/25 01:14:38;;;;;;;2.50;1.60;;;;;;;;;;5018440;28;20182;-53
2022/02/25 01:17:04;;;;;;;2.93;1.70;;;;;;;;;;5026870;28;20193;-53
2022/02/25 01:19:30;;;;;;;2.27;1.67;;;;;;;;;;5030758;28;20663;-53
2022/02/25 01:21:56;;;;;;;2.20;1.73;;;;;;;;;;5028377;28;20206;-52
2022/02/25 01:24:23;;;;;;;2.43;1.70;;;;;;;;;;5013249;28;20626;-55
2022/02/25 01:26:49;;;;;;;2.47;2.00;;;;;;;;;;5022294;28;20205;-52
2022/02/25 01:29:15;;;;;;;2.17;1.70;;;;;;;;;;5031070;28;20240;-52
2022/02/25 01:31:43;;;;;;;2.33;1.90;;;;;;;;;;5015726;28;20331;-53
2022/02/25 01:34:09;;;;;;;2.83;1.80;;;;;;;;;;5027488;28;20689;-52
2022/02/25 01:36:35;;;;;;;3.27;1.63;;;;;;;;;;5026513;28;20460;-53
2022/02/25 01:39:02;;;;;;;2.50;1.80;;;;;;;;;;5021970;28;20325;-53
2022/02/25 01:41:30;;;;;;;2.30;1.60;;;;;;;;;;5034499;28;20189;-53
2022/02/25 01:44:11;;;;;;;2.97;2.07;;;;;;;;;;5031078;28;20205;-52
2022/02/25 01:46:38;;;;;;;2.43;1.67;;;;;;;;;;5025776;28;20174;-53
2022/02/25 01:49:06;;;;;;;3.33;1.63;;;;;;;;;;5026238;28;20552;-55
2022/02/25 01:51:32;;;;;;;2.83;1.97;;;;;;;;;;5027124;28;20265;-54
2022/02/25 01:53:58;;;;;;;2.80;1.93;;;;;;;;;;5031601;28;20188;-53
2022/02/25 01:56:25;;;;;;;4.07;2.20;;;;;;;;;;5032701;28;20209;-53
2022/02/25 01:58:51;;;;;;;2.93;2.03;;;;;;;;;;5023992;28;20224;-53
2022/02/25 02:01:17;;;;;;;4.60;1.90;;;;;;;;;;5031756;28;20200;-52
2022/02/25 02:03:43;;;;;;;4.37;1.40;;;;;;;;;;5024395;28;20210;-54
2022/02/25 02:06:09;;;;;;;4.77;2.23;;;;;;;;;;5026562;28;20459;-52
2022/02/25 02:08:35;;;;;;;2.93;2.00;;;;;;;;;;5025480;28;20186;-53
2022/02/25 02:11:02;;;;;;;2.37;1.70;;;;;;;;;;5034227;28;20239;-54
2022/02/25 02:13:28;;;;;;;3.83;1.70;;;;;;;;;;5029465;28;20278;-55
2022/02/25 02:15:54;;;;;;;2.83;1.70;;;;;;;;;;5029404;28;20554;-53
2022/02/25 02:18:21;;;;;;;3.07;2.10;;;;;;;;;;5035287;28;20621;-53
2022/02/25 02:20:47;;;;;;;3.73;1.90;;;;;;;;;;5018492;28;20296;-52
2022/02/25 02:23:13;;;;;;;3.80;1.73;;;;;;;;;;5023275;28;20210;-53
2022/02/25 02:25:39;;;;;;;2.60;1.53;;;;;;;;;;5022540;28;20174;-53
2022/02/25 02:28:18;;;;;;;3.33;2.10;;;;;;;;;;5026577;28;20185;-52
2022/02/25 02:30:45;;;;;;;3.27;1.97;;;;;;;;;;5029746;28;20166;-53
2022/02/25 02:33:11;;;;;;;2.53;1.60;;;;;;;;;;5039389;28;20282;-52
2022/02/25 02:35:37;;;;;;;2.20;1.80;;;;;;;;;;5029009;28;20209;-53
2022/02/25 02:38:04;;;;;;;4.27;1.67;;;;;;;;;;5036003;28;20244;-53
2022/02/25 02:40:30;;;;;;;4.80;1.97;;;;;;;;;;5024898;28;20186;-53
2022/02/25 02:42:56;;;;;;;5.37;1.77;;;;;;;;;;5028247;28;20256;-53
2022/02/25 02:45:23;;;;;;;1.57;1.37;;;;;;;;;;5027536;28;20217;-53
2022/02/25 02:47:49;;;;;;;2.10;1.40;;;;;;;;;;5017995;28;20222;-52
2022/02/25 02:50:16;;;;;;;2.30;1.70;;;;;;;;;;4998579;28;20184;-52
2022/02/25 02:52:42;;;;;;;2.87;1.57;;;;;;;;;;4976457;28;20257;-53
2022/02/25 02:55:09;;;;;;;2.30;1.40;;;;;;;;;;5032993;28;20186;-52
2022/02/25 02:57:35;;;;;;;2.13;1.50;;;;;;;;;;5030074;28;20568;-52
2022/02/25 03:00:01;;;;;;;3.53;1.80;;;;;;;;;;5028958;28;20177;-53
2022/02/25 03:02:27;;;;;;;2.63;1.73;;;;;;;;;;5020801;28;20182;-52
2022/02/25 03:04:53;;;;;;;4.63;1.67;;;;;;;;;;5029459;28;20255;-54
2022/02/25 03:07:19;;;;;;;3.27;1.87;;;;;;;;;;5027646;28;20541;-53
2022/02/25 03:09:45;;;;;;;6.40;1.83;;;;;;;;;;5032092;28;20174;-53
2022/02/25 03:12:11;;;;;;;4.27;1.53;;;;;;;;;;5031028;28;20170;-52
2022/02/25 03:14:37;;;;;;;3.40;2.00;;;;;;;;;;5012105;28;20194;-53
2022/02/25 03:17:05;;;;;;;1.70;1.30;;;;;;;;;;5022048;28;20603;-52
2022/02/25 03:19:31;;;;;;;1.93;1.40;;;;;;;;;;5018223;28;20679;-53
2022/02/25 03:21:57;;;;;;;6.53;2.10;;;;;;;;;;5023824;28;20264;-52
2022/02/25 03:24:24;;;;;;;3.83;1.40;;;;;;;;;;5012494;28;20205;-53
2022/02/25 03:26:50;;;;;;;1.40;1.30;;;;;;;;;;5014939;28;20180;-53
2022/02/25 03:29:16;;;;;;;3.93;1.90;;;;;;;;;;5032596;28;20205;-53
2022/02/25 03:31:42;;;;;;;3.77;1.53;;;;;;;;;;5031943;28;20170;-53
2022/02/25 03:34:08;;;;;;;5.17;1.70;;;;;;;;;;4999268;28;20221;-53
2022/02/25 03:36:34;;;;;;;2.63;1.50;;;;;;;;;;4989934;28;20685;-54
2022/02/25 03:39:00;;;;;;;3.70;1.70;;;;;;;;;;5009267;28;20493;-52
2022/02/25 03:41:29;;;;;;;3.73;1.63;;;;;;;;;;5018401;28;20239;-53
2022/02/25 03:43:55;;;;;;;3.27;1.60;;;;;;;;;;5003140;28;20215;-53
2022/02/25 03:46:22;;;;;;;2.97;1.50;;;;;;;;;;5006119;28;20173;-53
2022/02/25 03:48:50;;;;;;;3.93;2.03;;;;;;;;;;4996241;28;20249;-52
2022/02/25 03:51:16;;;;;;;4.17;1.67;;;;;;;;;;5003708;28;21886;-52
2022/02/25 03:53:42;;;;;;;7.20;2.20;;;;;;;;;;5007588;28;20218;-53
2022/02/25 03:56:08;;;;;;;4.13;1.63;;;;;;;;;;5013394;28;20174;-52
2022/02/25 03:58:35;;;;;;;2.17;1.60;;;;;;;;;;5011595;28;20237;-54
2022/02/25 04:01:01;;;;;;;1.27;1.10;;;;;;;;;;5007942;28;20209;-53
2022/02/25 04:03:27;;;;;;;7.73;1.47;;;;;;;;;;5002176;28;20198;-54
2022/02/25 04:05:54;;;;;;;3.43;1.50;;;;;;;;;;5002146;28;20321;-54
2022/02/25 04:08:20;;;;;;;4.50;1.90;;;;;;;;;;4998500;28;20666;-54
2022/02/25 04:10:46;;;;;;;4.10;1.90;;;;;;;;;;5008635;28;20183;-53
2022/02/25 04:13:13;;;;;;;5.47;2.33;;;;;;;;;;5007526;28;20182;-51
2022/02/25 04:15:39;;;;;;;2.23;1.60;;;;;;;;;;5008925;28;20621;-52
2022/02/25 04:18:05;;;;;;;6.30;2.07;;;;;;;;;;5012099;28;20247;-55
2022/02/25 04:20:32;;;;;;;2.57;1.60;;;;;;;;;;5001374;28;20617;-52
2022/02/25 04:22:58;;;;;;;5.33;1.80;;;;;;;;;;5008844;28;20608;-52
2022/02/25 04:25:24;;;;;;;3.17;1.70;;;;;;;;;;5015210;28;20179;-53
2022/02/25 04:27:50;;;;;;;2.87;1.97;;;;;;;;;;4990809;28;20179;-53
2022/02/25 04:30:17;;;;;;;2.30;1.80;;;;;;;;;;5008276;28;20686;-52
2022/02/25 04:32:43;;;;;;;3.23;1.43;;;;;;;;;;5011905;28;20190;-52
2022/02/25 04:35:09;;;;;;;2.17;1.60;;;;;;;;;;5029954;28;20255;-53
2022/02/25 04:37:35;;;;;;;2.47;1.53;;;;;;;;;;5019178;28;20190;-53
2022/02/25 04:40:02;;;;;;;2.70;1.67;;;;;;;;;;5030982;28;20176;-54
2022/02/25 04:42:28;;;;;;;3.43;1.50;;;;;;;;;;5038740;28;20188;-52
2022/02/25 04:44:54;;;;;;;2.70;1.60;;;;;;;;;;5030101;28;20201;-52
2022/02/25 04:47:21;;;;;;;3.40;1.60;;;;;;;;;;5029642;28;20224;-53
2022/02/25 04:49:47;;;;;;;2.70;1.50;;;;;;;;;;5035393;28;20691;-53
2022/02/25 04:52:13;;;;;;;5.07;1.83;;;;;;;;;;5016653;28;20233;-52
2022/02/25 04:54:40;;;;;;;1.60;1.27;;;;;;;;;;5026938;28;20560;-52
2022/02/25 04:57:06;;;;;;;4.00;1.67;;;;;;;;;;5031607;28;20838;-53
2022/02/25 04:59:33;;;;;;;4.90;2.10;;;;;;;;;;5032266;28;20178;-53
2022/02/25 05:02:01;;;;;;;8.10;2.00;;;;;;;;;;5035563;28;20204;-52
2022/02/25 05:04:27;;;;;;;6.40;1.60;;;;;;;;;;5029294;28;20206;-53
2022/02/25 05:06:54;;;;;;;2.57;1.60;;;;;;;;;;5032959;28;20588;-53
2022/02/25 05:09:20;;;;;;;5.40;2.10;;;;;;;;;;5041966;28;20190;-53
2022/02/25 05:11:46;;;;;;;6.63;1.60;;;;;;;;;;5004666;28;20277;-54
2022/02/25 05:22:27;;;;;;;3.17;1.60;;;;;;;;;;5034783;28;20572;-54
2022/02/25 05:24:53;;;;;;;3.27;1.43;;;;;;;;;;5035666;28;20201;-53
2022/02/25 05:27:20;;;;;;;6.77;2.93;;;;;;;;;;5036615;28;20276;-53
2022/02/25 05:29:47;;;;;;;3.37;2.73;;;;;;;;;;5034039;28;20287;-53
2022/02/25 05:32:13;;;;;;;3.97;1.80;;;;;;;;;;5030611;28;20173;-53
2022/02/25 05:34:39;;;;;;;6.83;2.00;;;;;;;;;;5015456;28;20272;-54
2022/02/25 05:37:05;;;;;;;1.37;1.27;;;;;;;;;;5001981;28;20257;-52
2022/02/25 05:39:31;;;;;;;2.73;1.90;;;;;;;;;;4996788;28;21060;-55
2022/02/25 05:41:57;;;;;;;6.67;1.97;;;;;;;;;;5003991;28;20554;-53
2022/02/25 05:44:24;;;;;;;6.20;1.83;;;;;;;;;;5022333;28;20204;-52
2022/02/25 05:46:50;;;;;;;4.80;1.73;;;;;;;;;;5010035;28;20178;-53
2022/02/25 05:49:16;;;;;;;6.57;1.90;;;;;;;;;;5001315;28;20186;-53
2022/02/25 05:51:42;;;;;;;3.80;1.40;;;;;;;;;;5008670;28;20190;-52
2022/02/25 05:54:08;;;;;;;6.57;1.90;;;;;;;;;;5007374;28;20179;-52
2022/02/25 05:56:35;;;;;;;7.17;1.80;;;;;;;;;;5017532;28;20469;-53
2022/02/25 05:59:01;;;;;;;3.93;1.70;;;;;;;;;;5003611;28;20572;-53
2022/02/25 06:01:27;;;;;;;5.23;1.97;;;;;;;;;;5001202;28;20186;-53
2022/02/25 06:03:54;;;;;;;3.23;1.90;;;;;;;;;;4999713;28;20225;-52
2022/02/25 06:06:20;;;;;;;6.03;2.60;;;;;;;;;;5006357;28;20178;-53
2022/02/25 06:08:46;;;;;;;4.20;2.10;;;;;;;;;;5021863;28;20658;-54
2022/02/25 06:11:12;;;;;;;4.03;1.60;;;;;;;;;;5003936;28;20507;-53
2022/02/25 06:13:38;;;;;;;4.77;1.87;;;;;;;;;;5007289;28;20629;-53
2022/02/25 06:16:05;;;;;;;5.97;1.90;;;;;;;;;;4991200;28;20607;-54
2022/02/25 06:18:31;;;;;;;3.03;1.87;;;;;;;;;;5007110;28;20187;-54
2022/02/25 06:20:57;;;;;;;5.57;2.40;;;;;;;;;;5001691;28;20621;-53
2022/02/25 06:23:24;;;;;;;4.70;1.93;;;;;;;;;;5005559;28;21233;-53
2022/02/25 06:25:51;;;;;;;4.97;1.57;;;;;;;;;;5007131;28;20622;-52
2022/02/25 06:28:18;;;;;;;5.53;1.97;;;;;;;;;;4985843;28;20189;-53
2022/02/25 06:30:44;;;;;;;4.27;2.37;;;;;;;;;;4994202;28;20228;-53
2022/02/25 06:33:10;;;;;;;2.53;1.50;;;;;;;;;;5004900;28;20595;-52
2022/02/25 06:35:36;;;;;;;4.30;1.73;;;;;;;;;;5019960;28;20170;-52
2022/02/25 06:38:02;;;;;;;5.63;1.80;;;;;;;;;;4991660;28;20294;-54
2022/02/25 06:40:28;;;;;;;5.93;2.17;;;;;;;;;;5014320;28;20183;-53
2022/02/25 06:42:54;;;;;;;4.47;2.10;;;;;;;;;;5015170;28;20615;-52
2022/02/25 06:45:21;;;;;;;4.23;1.57;;;;;;;;;;5013056;28;20193;-52
2022/02/25 06:47:47;;;;;;;4.83;1.97;;;;;;;;;;5009632;28;20253;-52
2022/02/25 06:50:14;;;;;;;4.03;1.90;;;;;;;;;;5011429;28;20604;-53
2022/02/25 06:52:40;;;;;;;5.10;2.10;;;;;;;;;;4994584;28;20257;-53
2022/02/25 06:55:07;;;;;;;4.00;2.13;;;;;;;;;;5010341;28;20232;-52
2022/02/25 06:57:33;;;;;;;4.17;1.77;;;;;;;;;;4994172;28;20202;-53
2022/02/25 06:59:59;;;;;;;1.70;1.40;;;;;;;;;;5008282;28;20653;-53
2022/02/25 07:02:25;;;;;;;3.87;1.80;;;;;;;;;;5017932;28;20216;-52
2022/02/25 07:04:52;;;;;;;5.10;1.90;;;;;;;;;;5013992;28;20202;-53
2022/02/25 07:07:18;;;;;;;3.27;1.77;;;;;;;;;;4997848;28;21319;-54
2022/02/25 07:09:44;;;;;;;4.00;1.90;;;;;;;;;;5013040;28;20189;-53
2022/02/25 07:12:10;;;;;;;5.27;2.47;;;;;;;;;;5020001;28;20625;-53
2022/02/25 07:14:36;;;;;;;3.47;1.97;;;;;;;;;;5010419;28;20519;-52
2022/02/25 07:17:02;;;;;;;3.53;1.50;;;;;;;;;;4991774;28;20186;-53
2022/02/25 07:19:29;;;;;;;2.53;1.60;;;;;;;;;;5007796;28;20328;-53
2022/02/25 07:21:55;;;;;;;11.87;3.10;;;;;;;;;;4997183;28;20544;-53
2022/02/25 07:24:21;;;;;;;10.83;2.17;;;;;;;;;;5010433;28;20221;-52
2022/02/25 07:26:47;;;;;;;8.53;3.10;;;;;;;;;;5029119;28;20836;-53
2022/02/25 07:29:13;;;;;;;8.90;2.30;;;;;;;;;;5004396;28;20249;-54
2022/02/25 07:31:40;;;;;;;9.67;2.43;;;;;;;;;;5018765;28;20802;-53
2022/02/25 07:34:06;;;;;;;10.17;2.63;;;;;;;;;;5011927;28;20249;-55
2022/02/25 07:36:33;;;;;;;7.03;2.27;;;;;;;;;;5017610;28;20779;-52
2022/02/25 07:38:59;;;;;;;5.70;1.53;;;;;;;;;;5033606;28;20195;-56
2022/02/25 07:41:28;;;;;;;7.43;2.40;;;;;;;;;;5029837;28;20220;-54
2022/02/25 07:43:55;;;;;;;7.67;2.27;;;;;;;;;;5017439;28;20251;-52
2022/02/25 07:46:21;;;;;;;6.30;2.30;;;;;;;;;;5028096;28;20182;-53
2022/02/25 07:48:47;;;;;;;10.47;2.60;;;;;;;;;;5016934;28;20191;-54
2022/02/25 07:51:14;;;;;;;4.20;2.40;;;;;;;;;;5012488;28;20202;-53
2022/02/25 07:53:40;;;;;;;6.43;2.13;;;;;;;;;;5017729;28;20443;-54
2022/02/25 07:56:09;;;;;;;12.50;2.77;;;;;;;;;;5013389;28;20441;-53
2022/02/25 07:58:36;;;;;;;4.33;2.37;;;;;;;;;;5025784;28;21532;-53
2022/02/25 08:01:02;;;;;;;6.97;2.50;;;;;;;;;;5037963;28;20895;-54
2022/02/25 08:03:28;;;;;;;9.20;2.00;;;;;;;;;;5016640;28;20457;-54
2022/02/25 08:05:55;;;;;;;5.83;2.27;;;;;;;;;;5017953;28;20213;-52
2022/02/25 08:08:21;;;;;;;6.13;2.40;;;;;;;;;;5026368;28;20541;-53
2022/02/25 08:10:49;;;;;;;6.70;1.70;;;;;;;;;;5028526;28;20432;-52
2022/02/25 08:13:16;;;;;;;3.60;1.97;;;;;;;;;;5027738;28;20197;-52
2022/02/25 08:15:42;;;;;;;5.37;2.10;;;;;;;;;;5004802;28;20229;-52
2022/02/25 08:18:08;;;;;;;4.20;1.60;;;;;;;;;;5027454;28;20205;-54
2022/02/25 08:20:35;;;;;;;5.37;2.23;;;;;;;;;;5029332;28;20187;-55
2022/02/25 08:23:02;;;;;;;4.70;1.97;;;;;;;;;;5030479;28;20195;-53
2022/02/25 08:25:28;;;;;;;6.23;1.67;;;;;;;;;;5028620;28;20216;-52
2022/02/25 08:27:55;;;;;;;6.00;1.87;;;;;;;;;;5029971;28;20186;-54
2022/02/25 08:30:21;;;;;;;3.83;1.70;;;;;;;;;;5029477;28;20177;-53
2022/02/25 08:32:48;;;;;;;5.50;2.33;;;;;;;;;;5017367;28;20548;-53
2022/02/25 08:35:15;;;;;;;7.30;2.10;;;;;;;;;;5019830;28;20754;-53
2022/02/25 08:37:41;;;;;;;5.07;2.17;;;;;;;;;;5025888;28;20182;-52
2022/02/25 08:40:08;;;;;;;7.30;2.33;;;;;;;;;;5027417;28;20184;-53
2022/02/25 08:42:37;;;;;;;3.80;1.87;;;;;;;;;;5025809;28;20186;-53
2022/02/25 08:45:04;;;;;;;8.63;2.40;;;;;;;;;;5015085;28;20700;-53
2022/02/25 08:47:30;;;;;;;7.47;2.47;;;;;;;;;;5026043;28;20182;-54
2022/02/25 08:49:56;;;;;;;8.20;2.63;;;;;;;;;;5025693;28;20197;-53
2022/02/25 08:52:22;;;;;;;8.63;2.33;;;;;;;;;;5027238;28;20174;-53
2022/02/25 08:54:50;;;;;;;6.63;2.40;;;;;;;;;;5033767;28;20241;-54
2022/02/25 08:57:16;;;;;;;5.00;2.37;;;;;;;;;;5036198;28;20599;-52
2022/02/25 08:59:42;;;;;;;9.40;2.53;;;;;;;;;;5027028;28;20645;-53
2022/02/25 09:02:09;;;;;;;8.20;2.70;;;;;;;;;;5027184;28;20190;-55
2022/02/25 09:04:36;;;;;;;4.10;2.03;;;;;;;;;;5011700;28;20207;-53
2022/02/25 09:07:02;;;;;;;4.23;2.13;;;;;;;;;;5007798;28;20181;-53
2022/02/25 09:09:29;;;;;;;7.10;2.57;;;;;;;;;;5022820;28;20188;-53
2022/02/25 09:11:55;;;;;;;5.00;1.77;;;;;;;;;;5027496;28;20740;-52
2022/02/25 09:14:21;;;;;;;9.37;3.10;;;;;;;;;;5003209;28;20188;-53
2022/02/25 09:16:48;;;;;;;4.90;2.60;;;;;;;;;;5005739;28;20544;-53
2022/02/25 09:19:14;;;;;;;4.87;2.07;;;;;;;;;;5019748;28;20183;-52
2022/02/25 09:21:40;;;;;;;9.77;3.10;;;;;;;;;;5018407;28;20274;-55
2022/02/25 09:24:07;;;;;;;6.37;2.77;;;;;;;;;;5015645;28;20292;-52
2022/02/25 09:26:33;;;;;;;7.80;3.13;;;;;;;;;;5022880;28;20253;-52
2022/02/25 09:29:02;;;;;;;8.73;3.37;;;;;;;;;;5031187;28;20178;-52
2022/02/25 09:31:28;;;;;;;7.00;2.53;;;;;;;;;;5025239;28;20265;-53
2022/02/25 09:33:55;;;;;;;8.23;2.43;;;;;;;;;;5023250;28;20221;-52
2022/02/25 09:36:21;;;;;;;9.90;3.00;;;;;;;;;;5018012;28;20667;-54
2022/02/25 09:38:47;;;;;;;5.43;2.90;;;;;;;;;;5029075;28;21017;-52
2022/02/25 09:41:13;;;;;;;5.60;3.23;;;;;;;;;;5023702;28;20173;-53
2022/02/25 09:43:39;;;;;;;8.23;3.90;;;;;;;;;;5029715;28;20561;-53
2022/02/25 09:46:07;;;;;;;5.97;2.47;;;;;;;;;;5038814;28;20197;-53
2022/02/25 09:48:33;;;;;;;6.10;3.17;;;;;;;;;;5029963;28;20173;-52
2022/02/25 09:51:00;;;;;;;8.10;3.60;;;;;;;;;;5030879;28;20528;-53
2022/02/25 09:53:26;;;;;;;7.87;2.70;;;;;;;;;;5026773;28;20541;-53
2022/02/25 09:55:52;;;;;;;6.13;3.37;;;;;;;;;;5035454;28;20176;-53
2022/02/25 09:58:19;;;;;;;9.20;3.07;;;;;;;;;;5029680;28;20170;-53
2022/02/25 10:00:45;;;;;;;6.90;3.60;;;;;;;;;;5029947;28;20613;-52
2022/02/25 10:03:12;;;;;;;8.03;3.00;;;;;;;;;;5013238;28;20750;-54
2022/02/25 10:05:39;;;;;;;9.03;3.33;;;;;;;;;;5019125;28;20178;-53
2022/02/25 10:08:11;;;;;;;8.93;3.53;;;;;;;;;;5055231;28;20178;-53
2022/02/25 10:10:45;;;;;;;7.07;3.00;;;;;;;;;;5031790;28;20617;-52
2022/02/25 10:13:12;;;;;;;6.10;2.77;;;;;;;;;;5041355;28;20232;-54
2022/02/25 10:15:40;;;;;;;7.70;3.90;;;;;;;;;;5029609;28;20172;-52
2022/02/25 10:18:07;;;;;;;6.20;3.37;;;;;;;;;;5029546;28;20674;-53
2022/02/25 10:20:34;;;;;;;16.93;4.67;;;;;;;;;;5044378;28;20178;-52
2022/02/25 10:23:00;;;;;;;8.67;3.90;;;;;;;;;;5024147;28;20187;-55
2022/02/25 10:25:36;;;;;;;7.33;3.47;;;;;;;;;;5025457;28;20203;-53
2022/02/25 10:28:07;;;;;;;8.23;3.60;;;;;;;;;;5026832;28;20197;-53
2022/02/25 10:30:34;;;;;;;9.80;4.53;;;;;;;;;;5012487;28;20178;-53
2022/02/25 10:33:00;;;;;;;12.40;3.83;;;;;;;;;;5029430;28;20189;-53
2022/02/25 10:35:40;;;;;;;10.07;4.40;;;;;;;;;;5027228;28;20170;-54
2022/02/25 10:38:06;;;;;;;8.07;4.27;;;;;;;;;;5028479;28;20182;-54
2022/02/25 10:40:34;;;;;;;11.57;5.23;;;;;;;;;;5020999;28;20645;-53
2022/02/25 10:43:01;;;;;;;10.53;4.10;;;;;;;;;;5024672;28;20177;-53
2022/02/25 10:45:29;;;;;;;7.70;3.40;;;;;;;;;;5015625;28;20273;-53
2022/02/25 10:47:59;;;;;;;14.47;4.43;;;;;;;;;;5015062;28;20316;-54
2022/02/25 10:50:26;;;;;;;10.33;4.53;;;;;;;;;;5025338;28;20189;-53
2022/02/25 10:52:53;;;;;;;7.43;3.90;;;;;;;;;;5013627;28;20223;-55
2022/02/25 10:55:24;;;;;;;10.80;3.90;;;;;;;;;;5025123;28;20276;-53
2022/02/25 10:57:54;;;;;;;9.33;3.57;;;;;;;;;;5029441;28;20220;-52
2022/02/25 11:00:22;;;;;;;10.37;4.23;;;;;;;;;;5017324;28;20672;-53
2022/02/25 11:02:49;;;;;;;14.90;4.17;;;;;;;;;;5019060;28;20224;-52
2022/02/25 11:05:22;;;;;;;10.83;3.90;;;;;;;;;;5026390;28;20284;-53
2022/02/25 11:07:49;;;;;;;9.80;4.43;;;;;;;;;;5028412;28;20182;-53
2022/02/25 11:10:17;;;;;;;9.53;4.07;;;;;;;;;;5027363;28;20166;-52
2022/02/25 11:12:44;;;;;;;10.73;3.73;;;;;;;;;;5026328;28;20185;-53
2022/02/25 11:15:15;;;;;;;9.20;3.70;;;;;;;;;;5031285;28;20189;-53
2022/02/25 11:17:42;;;;;;;10.93;3.67;;;;;;;;;;5020015;28;20181;-52
2022/02/25 11:20:08;;;;;;;9.93;4.00;;;;;;;;;;5026579;28;20257;-53
2022/02/25 11:22:42;;;;;;;9.17;4.10;;;;;;;;;;5015602;28;20185;-52
2022/02/25 11:25:12;;;;;;;11.73;3.80;;;;;;;;;;5016881;28;20236;-53
2022/02/25 11:27:38;;;;;;;9.73;3.37;;;;;;;;;;5032341;28;20189;-53
2022/02/25 11:30:07;;;;;;;8.13;3.37;;;;;;;;;;5033340;28;20189;-52
2022/02/25 11:32:39;;;;;;;8.47;3.07;;;;;;;;;;5034408;28;20224;-53
2022/02/25 11:35:22;;;;;;;7.93;3.60;;;;;;;;;;5025249;28;20227;-53
2022/02/25 11:37:50;;;;;;;7.70;3.60;;;;;;;;;;5031542;28;20260;-52
2022/02/25 11:40:17;;;;;;;10.50;3.60;;;;;;;;;;5026143;28;20715;-53
2022/02/25 11:42:47;;;;;;;10.20;3.40;;;;;;;;;;5018286;28;20178;-54
2022/02/25 11:45:18;;;;;;;11.63;4.07;;;;;;;;;;5016289;28;20684;-54
2022/02/25 11:47:48;;;;;;;8.63;3.13;;;;;;;;;;5027681;28;20182;-53
2022/02/25 11:50:35;;;;;;;7.80;3.27;;;;;;;;;;5023994;28;20209;-53
2022/02/25 11:53:03;;;;;;;11.07;3.03;;;;;;;;;;5017796;28;20185;-53
2022/02/25 11:55:35;;;;;;;10.73;3.63;;;;;;;;;;5022945;28;20326;-53
2022/02/25 11:58:20;;;;;;;6.70;3.33;;;;;;;;;;5030594;28;20688;-52
2022/02/25 12:01:06;;;;;;;10.47;3.77;;;;;;;;;;5031399;28;20189;-53
2022/02/25 12:03:35;;;;;;;9.93;3.53;;;;;;;;;;5019911;28;20248;-55
2022/02/25 12:06:02;;;;;;;11.27;3.20;;;;;;;;;;5021912;28;20227;-54
2022/02/25 12:08:29;;;;;;;8.17;3.40;;;;;;;;;;5006043;28;20189;-56
2022/02/25 12:11:00;;;;;;;6.80;2.83;;;;;;;;;;5022971;28;20604;-54
2022/02/25 12:13:27;;;;;;;9.63;3.13;;;;;;;;;;5024452;28;20189;-55
2022/02/25 12:15:54;;;;;;;6.93;2.53;;;;;;;;;;5010020;28;20591;-55
2022/02/25 12:18:20;;;;;;;11.67;3.83;;;;;;;;;;5029830;28;20582;-54
2022/02/25 12:20:50;;;;;;;8.93;2.70;;;;;;;;;;5035293;28;20177;-55
2022/02/25 12:23:23;;;;;;;6.17;2.90;;;;;;;;;;5030671;28;20319;-54
2022/02/25 12:25:55;;;;;;;6.77;2.43;;;;;;;;;;5017140;28;20174;-55
2022/02/25 12:28:28;;;;;;;4.07;1.93;;;;;;;;;;5035268;28;20172;-55
2022/02/25 12:31:09;;;;;;;10.57;3.07;;;;;;;;;;5020479;28;20192;-56
2022/02/25 12:33:55;;;;;;;5.97;2.20;;;;;;;;;;5015989;28;20593;-55
2022/02/25 12:36:29;;;;;;;8.03;3.00;;;;;;;;;;5021900;28;20201;-55
2022/02/25 12:38:59;;;;;;;4.57;1.77;;;;;;;;;;5024852;28;20557;-54
2022/02/25 12:41:27;;;;;;;7.10;2.87;;;;;;;;;;5026563;28;20687;-54
2022/02/25 12:43:58;;;;;;;8.27;1.93;;;;;;;;;;5029627;28;20304;-54
2022/02/25 12:46:28;;;;;;;6.73;2.23;;;;;;;;;;5025281;28;20673;-55
2022/02/25 12:48:55;;;;;;;4.47;1.90;;;;;;;;;;5011790;28;20219;-56
2022/02/25 12:51:22;;;;;;;9.07;2.23;;;;;;;;;;5024439;28;20641;-54
2022/02/25 12:53:49;;;;;;;4.07;1.90;;;;;;;;;;5014879;28;20608;-55
2022/02/25 12:56:18;;;;;;;6.33;2.50;;;;;;;;;;5013496;28;20289;-53
2022/02/25 12:58:44;;;;;;;6.97;2.03;;;;;;;;;;5034171;28;20292;-54
2022/02/25 13:01:16;;;;;;;6.73;3.50;;;;;;;;;;5030462;28;20280;-57
2022/02/25 13:03:42;;;;;;;5.63;2.37;;;;;;;;;;5031723;28;20213;-54
2022/02/25 13:06:09;;;;;;;5.50;1.83;;;;;;;;;;5046069;28;20304;-51
2022/02/25 13:08:35;;;;;;;3.70;1.90;;;;;;;;;;5013709;28;20567;-54
2022/02/25 13:11:03;;;;;;;9.80;2.20;;;;;;;;;;5016433;28;20284;-55
2022/02/25 13:13:33;;;;;;;7.50;2.27;;;;;;;;;;5018517;28;20193;-56
2022/02/25 13:16:06;;;;;;;3.97;2.07;;;;;;;;;;5031033;28;20186;-55
2022/02/25 13:18:33;;;;;;;8.57;3.03;;;;;;;;;;5019597;28;20179;-55
2022/02/25 13:21:00;;;;;;;4.57;1.90;;;;;;;;;;5021490;28;20178;-53
2022/02/25 13:23:26;;;;;;;4.70;2.27;;;;;;;;;;5025249;28;20206;-54
2022/02/25 13:25:59;;;;;;;8.40;1.87;;;;;;;;;;5020674;28;20204;-55
2022/02/25 13:28:25;;;;;;;6.23;2.43;;;;;;;;;;5020430;28;20189;-57
2022/02/25 13:30:52;;;;;;;3.90;1.73;;;;;;;;;;5006499;28;20612;-55
2022/02/25 13:33:20;;;;;;;12.73;2.87;;;;;;;;;;5022778;28;20715;-55
2022/02/25 13:35:47;;;;;;;3.77;1.83;;;;;;;;;;5007724;28;20175;-54
2022/02/25 13:38:20;;;;;;;4.63;1.97;;;;;;;;;;5028531;28;20178;-54
2022/02/25 13:40:48;;;;;;;6.10;2.00;;;;;;;;;;5039074;28;20257;-54
2022/02/25 13:43:20;;;;;;;2.23;1.30;;;;;;;;;;5016253;28;20329;-55
2022/02/25 13:45:48;;;;;;;4.93;1.70;;;;;;;;;;5015708;28;20236;-55
2022/02/25 13:53:58;;;;;;;3.20;1.50;;;;;;;;;;5022128;28;20200;-53
2022/02/25 13:56:32;;;;;;;3.57;1.87;;;;;;;;;;5019774;28;20677;-54
2022/02/25 13:59:06;;;;;;;4.83;2.10;;;;;;;;;;5015014;28;20186;-54
2022/02/25 14:01:33;;;;;;;2.50;1.77;;;;;;;;;;5015841;28;20178;-53
2022/02/25 14:04:00;;;;;;;6.47;2.13;;;;;;;;;;5026645;28;20209;-54
2022/02/25 14:06:28;;;;;;;6.03;2.13;;;;;;;;;;5025715;28;20185;-55
2022/02/25 14:08:54;;;;;;;6.67;1.87;;;;;;;;;;5017551;28;20237;-54
2022/02/25 14:11:36;;;;;;;5.33;2.00;;;;;;;;;;5021487;28;20239;-51
2022/02/25 14:14:03;;;;;;;5.33;2.30;;;;;;;;;;5026712;28;20272;-55
2022/02/25 14:16:29;;;;;;;5.07;1.90;;;;;;;;;;5028377;28;21019;-54
2022/02/25 14:19:16;;;;;;;6.83;1.70;;;;;;;;;;5029080;28;20305;-55
2022/02/25 14:21:42;;;;;;;5.70;1.93;;;;;;;;;;5025148;28;20657;-54
2022/02/25 14:24:26;;;;;;;3.63;1.60;;;;;;;;;;5023086;28;20680;-56
2022/02/25 14:27:09;;;;;;;7.07;1.93;;;;;;;;;;5030294;28;20185;-53
2022/02/25 14:29:35;;;;;;;9.10;1.93;;;;;;;;;;5014998;28;20718;-55
2022/02/25 14:32:15;;;;;;;7.77;1.60;;;;;;;;;;5019396;28;20189;-54
2022/02/25 14:34:45;;;;;;;4.57;1.60;;;;;;;;;;5018677;28;20704;-54
2022/02/25 14:37:27;;;;;;;4.80;1.67;;;;;;;;;;5020697;28;20193;-55
2022/02/25 14:39:54;;;;;;;5.73;1.60;;;;;;;;;;5021168;28;20183;-55
2022/02/25 14:42:20;;;;;;;9.13;2.03;;;;;;;;;;5012873;28;20209;-52
2022/02/25 14:44:46;;;;;;;5.27;2.20;;;;;;;;;;5025260;28;20623;-54
2022/02/25 14:47:13;;;;;;;5.97;2.67;;;;;;;;;;5015299;28;20170;-54
2022/02/25 14:49:39;;;;;;;7.70;2.80;;;;;;;;;;5019400;28;20737;-53
2022/02/25 14:52:06;;;;;;;5.17;2.33;;;;;;;;;;5022847;28;20177;-57
2022/02/25 14:54:33;;;;;;;4.20;2.20;;;;;;;;;;5024862;28;20668;-54
2022/02/25 14:56:59;;;;;;;5.13;1.87;;;;;;;;;;5022497;28;20213;-54
2022/02/25 14:59:25;;;;;;;7.33;2.10;;;;;;;;;;5023752;28;20220;-54